Time;durP1;ratioP1;P1;durP2;ratioP2;P2;SDS_P1;SDS_P2;PMS_P1;PMS_P2;Temp;Humidity;BMP_temperature;BMP_pressure;BME280_temperature;BME280_humidity;BME280_pressure;Samples;Min_cycle;Max_cycle;Signal;HPM_P1;HPM_P2
2022/08/16 04:02:33;;;;;;;;;;;;;;;17.79;69.32;98159.47;2604173;46;20092;-67
2022/08/16 04:05:08;;;;;;;;;;;;;;;17.92;69.03;98162.78;2625317;54;19946;-67
2022/08/16 04:07:40;;;;;;;;;;;;;;;17.94;69.08;98161.47;2621700;54;20031;-67
2022/08/16 04:10:12;;;;;;;;;;;;;;;18.00;68.81;98162.31;2619736;47;19953;-67
2022/08/16 04:13:01;;;;;;;;;;;;;;;18.02;69.09;98162.88;2624757;54;19945;-66
2022/08/16 04:15:34;;;;;;;;;;;;;;;17.97;68.77;98158.28;2621541;54;20037;-67
2022/08/16 04:18:17;;;;;;;;;;;;;;;17.85;69.03;98154.19;2617341;47;19946;-65
2022/08/16 04:20:46;;;;;;;;;;;;;;;17.66;69.47;98165.22;2619161;54;20469;-67
2022/08/16 04:23:17;;;;;;;;;;;;;;;17.68;69.47;98165.78;2619147;47;19975;-66
2022/08/16 04:25:48;;;;;;;;;;;;;;;17.64;69.61;98174.56;2619069;47;19945;-66
2022/08/16 04:28:21;;;;;;;;;;;;;;;17.64;70.28;98172.69;2619115;54;19943;-65
2022/08/16 04:31:13;;;;;;;;;;;;;;;17.72;69.94;98176.78;2619096;54;20465;-66
2022/08/16 04:33:46;;;;;;;;;;;;;;;17.76;70.06;98167.22;2618806;51;19946;-66
2022/08/16 04:36:21;;;;;;;;;;;;;;;17.78;69.10;98173.91;2618856;54;20037;-66
2022/08/16 04:38:51;;;;;;;;;;;;;;;17.65;69.55;98187.66;2619154;47;20033;-67
2022/08/16 04:41:21;;;;;;;;;;;;;;;17.67;69.57;98188.19;2619619;54;19953;-66
2022/08/16 04:44:02;;;;;;;;;;;;;;;17.70;69.27;98184.22;2619042;47;19939;-69
2022/08/16 04:46:52;;;;;;;;;;;;;;;17.56;69.83;98176.63;2619011;47;19939;-67
2022/08/16 04:49:34;;;;;;;;;;;;;;;17.49;69.42;98186.69;2624038;54;19947;-67
2022/08/16 04:52:13;;;;;;;;;;;;;;;17.47;70.17;98177.31;2623678;46;19946;-67
2022/08/16 04:55:03;;;;;;;;;;;;;;;17.50;70.03;98172.28;2618771;54;19977;-67
2022/08/16 04:57:33;;;;;;;;;;;;;;;17.59;70.01;98183.31;2623053;54;20483;-67
2022/08/16 05:00:02;;;;;;;;;;;;;;;17.67;69.82;98182.06;2622143;54;19959;-67
2022/08/16 05:02:53;;;;;;;;;;;;;;;17.74;70.08;98193.34;2619518;39;20349;-67
2022/08/16 05:05:30;;;;;;;;;;;;;;;17.83;69.87;98186.50;2619342;54;19985;-67
2022/08/16 05:08:03;;;;;;;;;;;;;;;17.86;68.97;98190.56;2618323;54;19945;-67
2022/08/16 05:11:03;;;;;;;;;;;;;;;17.70;69.71;98189.56;2618802;54;19977;-67
2022/08/16 05:13:37;;;;;;;;;;;;;;;17.81;69.33;98197.47;2618447;54;20465;-67
2022/08/16 05:16:15;;;;;;;;;;;;;;;17.88;69.09;98194.59;2618335;54;19950;-67
2022/08/16 05:18:56;;;;;;;;;;;;;;;17.91;69.43;98206.63;2618481;54;20054;-67
2022/08/16 05:21:31;;;;;;;;;;;;;;;18.03;69.52;98210.75;2619201;51;19954;-68
2022/08/16 05:24:08;;;;;;;;;;;;;;;18.19;69.42;98209.00;2618961;54;19939;-67
2022/08/16 05:26:39;;;;;;;;;;;;;;;18.31;69.12;98211.50;2618704;54;19951;-65
2022/08/16 05:29:18;;;;;;;;;;;;;;;18.36;68.46;98213.41;2618743;47;19942;-67
2022/08/16 05:32:02;;;;;;;;;;;;;;;18.40;68.38;98217.97;2618113;54;19938;-66
2022/08/16 05:34:51;;;;;;;;;;;;;;;18.49;68.28;98215.63;2618804;54;19969;-66
2022/08/16 05:37:25;;;;;;;;;;;;;;;18.54;68.29;98216.47;2618066;52;19947;-68
2022/08/16 05:40:10;;;;;;;;;;;;;;;18.65;68.11;98217.31;2618409;54;19986;-66
2022/08/16 05:42:42;;;;;;;;;;;;;;;18.87;67.88;98227.94;2617947;54;20434;-67
2022/08/16 05:45:18;;;;;;;;;;;;;;;19.01;67.35;98222.91;2618058;54;19946;-66
2022/08/16 05:47:53;;;;;;;;;;;;;;;19.12;66.45;98215.72;2618176;51;20029;-67
2022/08/16 05:50:38;;;;;;;;;;;;;;;19.11;66.50;98217.59;2618415;47;19947;-66
2022/08/16 05:53:12;;;;;;;;;;;;;;;19.13;66.53;98210.09;2618619;51;19939;-66
2022/08/16 05:55:59;;;;;;;;;;;;;;;19.32;66.55;98223.84;2618510;51;19939;-65
2022/08/16 05:58:28;;;;;;;;;;;;;;;19.50;65.93;98227.91;2618475;54;20422;-65
2022/08/16 06:01:03;;;;;;;;;;;;;;;19.59;65.49;98233.53;2618678;54;19977;-66
2022/08/16 06:03:36;;;;;;;;;;;;;;;19.49;65.04;98228.97;2618532;54;20419;-66
2022/08/16 06:06:19;;;;;;;;;;;;;;;19.51;65.54;98230.31;2618293;54;20034;-68
2022/08/16 06:09:01;;;;;;;;;;;;;;;19.54;65.10;98237.00;2618081;54;19946;-66
2022/08/16 06:11:30;;;;;;;;;;;;;;;19.62;65.46;98241.88;2618370;54;19950;-66
2022/08/16 06:14:02;;;;;;;;;;;;;;;19.79;64.87;98233.59;2618483;39;20353;-67
2022/08/16 06:16:39;;;;;;;;;;;;;;;19.80;65.14;98243.28;2618796;54;20429;-64
2022/08/16 06:19:10;;;;;;;;;;;;;;;19.87;64.29;98232.28;2618559;54;20072;-66
2022/08/16 06:21:47;;;;;;;;;;;;;;;19.87;64.68;98234.97;2618244;54;20454;-65
2022/08/16 06:24:27;;;;;;;;;;;;;;;20.02;65.00;98233.09;2619071;50;20059;-65
2022/08/16 06:27:16;;;;;;;;;;;;;;;20.19;65.27;98229.34;2618532;47;19954;-66
2022/08/16 06:29:46;;;;;;;;;;;;;;;20.28;64.84;98228.53;2618734;54;19949;-66
2022/08/16 06:32:20;;;;;;;;;;;;;;;20.38;65.11;98232.31;2618639;47;19945;-67
2022/08/16 06:34:57;;;;;;;;;;;;;;;20.37;65.04;98228.81;2619092;39;20373;-67
2022/08/16 06:37:32;;;;;;;;;;;;;;;20.44;65.19;98228.53;2618740;46;19950;-66
2022/08/16 06:40:12;;;;;;;;;;;;;;;20.55;64.56;98221.28;2618756;54;19946;-66
2022/08/16 06:42:50;;;;;;;;;;;;;;;20.52;64.73;98220.75;2619535;54;20066;-67
2022/08/16 06:45:42;;;;;;;;;;;;;;;20.63;64.37;98218.88;2620037;54;20473;-66
2022/08/16 06:48:20;;;;;;;;;;;;;;;20.61;64.42;98223.69;2619686;54;20070;-67
2022/08/16 06:51:03;;;;;;;;;;;;;;;20.76;64.70;98212.91;2620712;54;20689;-66
2022/08/16 06:53:35;;;;;;;;;;;;;;;20.93;64.12;98217.16;2619955;54;19939;-66
2022/08/16 06:56:08;;;;;;;;;;;;;;;21.05;63.72;98223.03;2620017;54;20465;-67
2022/08/16 06:59:20;;;;;;;;;;;;;;;21.10;63.80;98224.88;2621205;54;19961;-66
2022/08/16 07:01:57;;;;;;;;;;;;;;;21.24;63.16;98226.72;2622494;47;19946;-67
2022/08/16 07:04:30;;;;;;;;;;;;;;;21.21;63.87;98229.94;2624028;54;19947;-66
2022/08/16 07:07:31;;;;;;;;;;;;;;;21.25;63.88;98236.38;2623894;47;20019;-66
2022/08/16 07:10:06;;;;;;;;;;;;;;;21.36;63.97;98217.56;2626034;39;20349;-66
2022/08/16 07:12:40;;;;;;;;;;;;;;;21.40;63.22;98224.78;2624087;54;19950;-66
2022/08/16 07:15:30;;;;;;;;;;;;;;;21.51;63.90;98228.22;2624069;47;19954;-67
2022/08/16 07:18:00;;;;;;;;;;;;;;;21.61;63.14;98230.06;2623617;51;19954;-70
2022/08/16 07:20:33;;;;;;;;;;;;;;;21.73;63.36;98231.31;2623805;54;19943;-66
2022/08/16 07:23:17;;;;;;;;;;;;;;;21.79;62.49;98231.28;2623251;53;19953;-67
2022/08/16 07:25:52;;;;;;;;;;;;;;;21.76;62.87;98232.66;2623026;47;19958;-67
2022/08/16 07:28:25;;;;;;;;;;;;;;;21.75;62.85;98233.72;2619134;47;19946;-67
2022/08/16 07:30:58;;;;;;;;;;;;;;;21.78;62.89;98227.78;2619700;54;19947;-66
2022/08/16 07:33:36;;;;;;;;;;;;;;;21.84;62.65;98220.47;2618743;54;19973;-66
2022/08/16 07:36:23;;;;;;;;;;;;;;;21.88;62.62;98222.34;2619226;54;19947;-66
2022/08/16 07:38:53;;;;;;;;;;;;;;;21.98;62.22;98222.25;2619144;39;20345;-66
2022/08/16 07:41:24;;;;;;;;;;;;;;;22.15;62.26;98221.88;2618713;47;19962;-66
2022/08/16 07:44:02;;;;;;;;;;;;;;;22.23;61.49;98226.66;2619290;39;20323;-66
2022/08/16 07:46:44;;;;;;;;;;;;;;;22.29;61.50;98221.22;2618697;47;19989;-66
2022/08/16 07:49:19;;;;;;;;;;;;;;;22.40;61.35;98228.13;2618453;54;19966;-68
2022/08/16 07:51:49;;;;;;;;;;;;;;;22.48;60.88;98219.44;2618608;54;19942;-66
2022/08/16 07:54:25;;;;;;;;;;;;;;;22.55;60.29;98224.50;2618592;54;19942;-67
2022/08/16 07:57:03;;;;;;;;;;;;;;;22.64;60.43;98223.59;2618366;54;19950;-67
2022/08/16 07:59:36;;;;;;;;;;;;;;;22.75;60.25;98227.00;2618182;47;19946;-67
2022/08/16 08:02:14;;;;;;;;;;;;;;;22.74;59.58;98226.19;2618584;39;20365;-68
2022/08/16 08:04:52;;;;;;;;;;;;;;;22.77;59.69;98230.19;2618508;54;20450;-66
2022/08/16 08:07:22;;;;;;;;;;;;;;;22.93;59.05;98222.78;2618273;54;19994;-67
2022/08/16 08:09:57;;;;;;;;;;;;;;;22.94;59.10;98232.44;2619487;54;19938;-67
2022/08/16 08:12:27;;;;;;;;;;;;;;;23.02;59.08;98234.53;2620051;54;19939;-67
2022/08/16 08:15:02;;;;;;;;;;;;;;;23.15;58.87;98243.84;2619392;46;20009;-68
2022/08/16 08:17:32;;;;;;;;;;;;;;;23.40;58.07;98246.19;2619384;54;19946;-66
2022/08/16 08:20:19;;;;;;;;;;;;;;;23.65;57.67;98233.47;2619296;54;19956;-67
2022/08/16 08:22:59;;;;;;;;;;;;;;;23.85;56.96;98241.28;2619738;54;20446;-67
2022/08/16 08:25:47;;;;;;;;;;;;;;;23.91;56.46;98236.59;2619302;48;19938;-67
2022/08/16 08:28:25;;;;;;;;;;;;;;;23.99;55.47;98235.94;2619985;51;19946;-67
2022/08/16 08:31:04;;;;;;;;;;;;;;;24.20;55.76;98241.81;2619196;46;19939;-64
2022/08/16 08:33:39;;;;;;;;;;;;;;;24.52;54.95;98232.94;2619343;54;19942;-66
2022/08/16 08:36:18;;;;;;;;;;;;;;;24.49;53.68;98236.22;2619646;54;19942;-66
2022/08/16 08:38:52;;;;;;;;;;;;;;;24.58;54.51;98231.75;2620318;39;20458;-65
2022/08/16 08:41:27;;;;;;;;;;;;;;;24.79;53.96;98229.47;2619632;54;20054;-67
2022/08/16 08:44:00;;;;;;;;;;;;;;;24.95;53.38;98235.38;2619089;54;19939;-67
2022/08/16 08:46:56;;;;;;;;;;;;;;;24.83;52.64;98237.78;2619009;54;19973;-67
2022/08/16 08:49:31;;;;;;;;;;;;;;;24.68;52.07;98241.56;2619898;31;20445;-67
2022/08/16 08:52:19;;;;;;;;;;;;;;;24.65;52.47;98234.03;2619212;54;19958;-67
2022/08/16 08:58:00;;;;;;;;;;;;;;;24.95;51.75;98227.28;2619793;54;19946;-66
2022/08/16 09:00:48;;;;;;;;;;;;;;;24.88;51.78;98226.88;2619538;39;20334;-66
2022/08/16 09:03:23;;;;;;;;;;;;;;;24.84;51.66;98226.66;2619009;47;19939;-67
2022/08/16 09:05:56;;;;;;;;;;;;;;;24.88;51.28;98230.38;2619020;54;20077;-67
2022/08/16 09:08:25;;;;;;;;;;;;;;;24.93;51.49;98232.16;2618806;54;19954;-67
2022/08/16 09:11:05;;;;;;;;;;;;;;;24.92;50.98;98249.50;2619098;51;19950;-66
2022/08/16 09:13:39;;;;;;;;;;;;;;;24.77;51.51;98255.97;2619531;54;19946;-67
2022/08/16 09:16:18;;;;;;;;;;;;;;;24.73;52.06;98244.16;2619073;54;19942;-67
2022/08/16 09:19:10;;;;;;;;;;;;;;;24.90;51.86;98247.09;2619009;47;19982;-68
2022/08/16 09:21:42;;;;;;;;;;;;;;;24.96;50.72;98253.22;2618872;54;19946;-68
2022/08/16 09:24:13;;;;;;;;;;;;;;;24.95;51.18;98252.41;2619423;39;20342;-67
2022/08/16 09:27:02;;;;;;;;;;;;;;;24.76;50.55;98257.09;2619455;54;19946;-67
2022/08/16 09:29:32;;;;;;;;;;;;;;;24.66;51.01;98247.28;2619333;47;20046;-69
2022/08/16 09:32:17;;;;;;;;;;;;;;;24.57;51.32;98259.84;2619616;54;20018;-66
2022/08/16 09:35:02;;;;;;;;;;;;;;;24.52;51.22;98254.53;2619504;47;19947;-66
2022/08/16 09:37:32;;;;;;;;;;;;;;;24.45;50.98;98256.81;2620163;54;19957;-66
2022/08/16 09:40:06;;;;;;;;;;;;;;;24.41;50.50;98253.94;2620240;54;19953;-66
2022/08/16 09:42:57;;;;;;;;;;;;;;;24.66;50.19;98249.19;2620361;54;19950;-67
2022/08/16 09:45:29;;;;;;;;;;;;;;;24.91;50.10;98254.09;2619972;54;19943;-67
2022/08/16 09:47:59;;;;;;;;;;;;;;;25.15;49.01;98250.44;2619352;54;19954;-67
2022/08/16 09:50:31;;;;;;;;;;;;;;;25.26;48.08;98246.41;2619747;54;19947;-67
2022/08/16 09:53:09;;;;;;;;;;;;;;;25.38;48.22;98245.91;2619574;54;19961;-67
2022/08/16 09:55:45;;;;;;;;;;;;;;;25.60;47.45;98245.16;2620002;54;19938;-67
2022/08/16 09:58:18;;;;;;;;;;;;;;;25.53;47.29;98244.78;2619880;54;20494;-66
2022/08/16 10:01:08;;;;;;;;;;;;;;;25.54;47.32;98239.06;2619917;54;19943;-66
2022/08/16 10:03:40;;;;;;;;;;;;;;;25.59;47.45;98246.25;2619613;54;19954;-66
2022/08/16 10:06:32;;;;;;;;;;;;;;;25.56;46.98;98242.28;2619888;54;20046;-66
2022/08/16 10:09:03;;;;;;;;;;;;;;;25.45;46.84;98249.00;2619769;54;19973;-67
2022/08/16 10:14:19;;;;;;;;;;;;;;;25.63;46.72;98242.63;2619766;54;20430;-66
2022/08/16 10:17:02;;;;;;;;;;;;;;;25.56;46.19;98239.56;2619757;54;19930;-67
2022/08/16 10:19:31;;;;;;;;;;;;;;;25.62;46.07;98242.94;2619864;54;19939;-67
2022/08/16 10:22:04;;;;;;;;;;;;;;;25.97;45.15;98232.47;2620277;54;19942;-67
2022/08/16 10:24:34;;;;;;;;;;;;;;;26.11;45.03;98236.69;2626535;54;20005;-67
2022/08/16 10:27:06;;;;;;;;;;;;;;;26.05;45.17;98240.63;2625619;54;19939;-67
2022/08/16 10:29:55;;;;;;;;;;;;;;;25.91;45.34;98235.25;2626241;54;19946;-68
2022/08/16 10:32:30;;;;;;;;;;;;;;;25.92;45.71;98234.19;2625841;47;19970;-67
2022/08/16 10:35:02;;;;;;;;;;;;;;;25.88;45.48;98238.59;2626629;54;19958;-67
2022/08/16 10:37:34;;;;;;;;;;;;;;;25.76;45.72;98241.03;2624966;47;19946;-68
2022/08/16 10:40:06;;;;;;;;;;;;;;;25.83;45.28;98233.28;2624024;54;19954;-67
2022/08/16 10:42:57;;;;;;;;;;;;;;;25.77;44.59;98244.53;2625449;54;19939;-65
2022/08/16 10:45:28;;;;;;;;;;;;;;;25.68;45.19;98245.25;2625717;39;20343;-67
2022/08/16 10:48:09;;;;;;;;;;;;;;;25.82;45.08;98236.31;2625646;54;19970;-66
2022/08/16 10:50:56;;;;;;;;;;;;;;;25.83;45.26;98227.06;2624722;54;20026;-67
2022/08/16 10:53:30;;;;;;;;;;;;;;;25.93;44.54;98234.97;2624675;54;19985;-67
2022/08/16 10:56:03;;;;;;;;;;;;;;;26.18;44.23;98237.06;2623665;54;19958;-66
2022/08/16 10:58:56;;;;;;;;;;;;;;;26.21;44.15;98238.38;2620888;54;20431;-67
2022/08/16 11:01:45;;;;;;;;;;;;;;;26.30;43.63;98241.13;2623005;54;19954;-67
2022/08/16 11:04:35;;;;;;;;;;;;;;;26.36;43.47;98245.28;2623520;47;19968;-67
2022/08/16 11:07:24;;;;;;;;;;;;;;;26.46;43.47;98242.38;2624501;54;19939;-68
2022/08/16 11:10:18;;;;;;;;;;;;;;;26.47;43.26;98243.16;2623713;54;19997;-66
2022/08/16 11:12:48;;;;;;;;;;;;;;;26.47;43.84;98238.53;2622596;39;20357;-67
2022/08/16 11:15:21;;;;;;;;;;;;;;;26.46;43.29;98241.56;2621359;54;19938;-67
2022/08/16 11:17:55;;;;;;;;;;;;;;;26.40;43.24;98249.00;2619772;54;19946;-66
2022/08/16 11:20:46;;;;;;;;;;;;;;;26.39;43.33;98242.78;2619748;54;20027;-66
2022/08/16 11:23:19;;;;;;;;;;;;;;;26.40;43.64;98238.16;2619834;54;20033;-66
2022/08/16 11:25:51;;;;;;;;;;;;;;;26.45;43.25;98250.78;2619516;54;19954;-66
2022/08/16 11:28:40;;;;;;;;;;;;;;;26.54;42.99;98249.75;2619534;54;20454;-66
2022/08/16 11:31:30;;;;;;;;;;;;;;;26.56;42.66;98257.56;2619577;54;20456;-68
2022/08/16 11:34:01;;;;;;;;;;;;;;;26.52;43.15;98246.53;2619313;54;19938;-67
2022/08/16 11:36:30;;;;;;;;;;;;;;;26.53;42.69;98242.72;2619156;54;19947;-67
2022/08/16 11:39:01;;;;;;;;;;;;;;;26.58;42.79;98242.59;2619375;54;19950;-67
2022/08/16 11:41:37;;;;;;;;;;;;;;;26.86;42.92;98237.78;2618952;47;20014;-66
2022/08/16 11:44:11;;;;;;;;;;;;;;;26.81;41.82;98239.81;2619657;54;19985;-66
2022/08/16 11:46:48;;;;;;;;;;;;;;;26.68;42.59;98236.88;2620707;39;20331;-66
2022/08/16 11:49:22;;;;;;;;;;;;;;;26.79;42.37;98240.13;2619480;54;19995;-67
2022/08/16 11:51:51;;;;;;;;;;;;;;;27.08;41.42;98236.91;2619460;54;19946;-67
2022/08/16 11:54:21;;;;;;;;;;;;;;;27.33;40.99;98231.88;2620035;54;19993;-67
2022/08/16 11:57:04;;;;;;;;;;;;;;;27.49;40.29;98230.31;2620472;39;20339;-66
2022/08/16 11:59:38;;;;;;;;;;;;;;;27.53;40.31;98234.00;2620211;54;19989;-67
2022/08/16 12:02:09;;;;;;;;;;;;;;;27.57;40.19;98232.25;2620601;54;19945;-67
2022/08/16 12:04:59;;;;;;;;;;;;;;;27.41;39.43;98239.25;2620069;54;19950;-66
2022/08/16 12:07:29;;;;;;;;;;;;;;;27.49;38.95;98232.22;2619718;54;19947;-66
2022/08/16 12:10:01;;;;;;;;;;;;;;;27.56;39.04;98230.66;2621842;39;20378;-67
2022/08/16 12:12:34;;;;;;;;;;;;;;;27.82;39.29;98233.41;2620267;54;19947;-66
2022/08/16 12:15:06;;;;;;;;;;;;;;;28.13;38.37;98216.13;2620118;54;19947;-67
2022/08/16 12:17:36;;;;;;;;;;;;;;;28.41;37.60;98213.84;2621025;39;20064;-66
2022/08/16 12:20:08;;;;;;;;;;;;;;;28.48;37.46;98219.59;2621685;54;19953;-67
2022/08/16 12:22:47;;;;;;;;;;;;;;;28.59;36.81;98211.88;2620996;54;19945;-67
2022/08/16 12:25:18;;;;;;;;;;;;;;;28.79;36.67;98219.31;2620720;54;20026;-66
2022/08/16 12:27:51;;;;;;;;;;;;;;;29.04;36.18;98205.97;2620304;54;20434;-67
2022/08/16 12:30:24;;;;;;;;;;;;;;;29.25;35.75;98211.44;2619789;46;19939;-67
2022/08/16 12:33:05;;;;;;;;;;;;;;;29.04;35.75;98216.84;2619699;47;19990;-67
2022/08/16 12:35:35;;;;;;;;;;;;;;;28.60;35.92;98210.75;2620709;54;19947;-67
2022/08/16 12:38:06;;;;;;;;;;;;;;;28.47;36.38;98212.56;2620518;54;19939;-67
2022/08/16 12:40:57;;;;;;;;;;;;;;;28.30;36.36;98207.16;2620350;54;20411;-67
2022/08/16 12:43:30;;;;;;;;;;;;;;;28.07;37.09;98204.63;2621103;54;20489;-66
2022/08/16 12:46:00;;;;;;;;;;;;;;;28.07;37.04;98209.25;2620332;54;19938;-66
2022/08/16 12:51:20;;;;;;;;;;;;;;;27.87;37.01;98206.06;2621346;47;20544;-67
2022/08/16 12:53:53;;;;;;;;;;;;;;;28.06;37.26;98207.66;2620221;54;19989;-67
2022/08/16 12:56:24;;;;;;;;;;;;;;;27.96;37.25;98206.06;2619415;54;20509;-67
2022/08/16 12:58:56;;;;;;;;;;;;;;;28.01;36.99;98205.13;2620981;54;19989;-67
2022/08/16 13:01:30;;;;;;;;;;;;;;;28.30;36.71;98199.78;2618984;47;19993;-67
2022/08/16 13:04:00;;;;;;;;;;;;;;;28.37;36.32;98197.41;2619621;54;19945;-67
2022/08/16 13:06:49;;;;;;;;;;;;;;;28.50;36.27;98192.88;2620215;54;19947;-67
2022/08/16 13:09:24;;;;;;;;;;;;;;;28.69;36.21;98192.47;2622009;54;19954;-66
2022/08/16 13:12:02;;;;;;;;;;;;;;;28.96;35.31;98185.00;2627084;54;20006;-66
2022/08/16 13:14:39;;;;;;;;;;;;;;;29.35;35.10;98186.53;2625689;54;19953;-67
2022/08/16 13:17:12;;;;;;;;;;;;;;;29.56;34.48;98183.84;2623871;54;19946;-66
2022/08/16 13:19:50;;;;;;;;;;;;;;;29.82;34.15;98186.38;2623076;51;20069;-67
2022/08/16 13:22:41;;;;;;;;;;;;;;;30.03;33.11;98189.84;2621497;54;19973;-67
2022/08/16 13:25:12;;;;;;;;;;;;;;;30.09;32.76;98179.56;2620986;54;19994;-66
2022/08/16 13:27:49;;;;;;;;;;;;;;;30.16;33.26;98179.03;2621419;54;19955;-66
2022/08/16 13:30:37;;;;;;;;;;;;;;;30.32;33.11;98180.75;2622576;54;20005;-66
2022/08/16 13:33:10;;;;;;;;;;;;;;;30.36;31.67;98178.16;2621638;54;19950;-66
2022/08/16 13:35:42;;;;;;;;;;;;;;;30.25;32.21;98177.81;2623526;54;19946;-65
2022/08/16 13:38:14;;;;;;;;;;;;;;;30.34;31.91;98177.72;2622339;54;19993;-66
2022/08/16 13:40:53;;;;;;;;;;;;;;;30.45;31.95;98180.78;2623251;47;19939;-67
2022/08/16 13:43:26;;;;;;;;;;;;;;;30.60;31.31;98172.75;2623779;54;19947;-65
2022/08/16 13:46:00;;;;;;;;;;;;;;;30.65;31.14;98174.44;2621888;54;19938;-67
2022/08/16 13:48:31;;;;;;;;;;;;;;;30.59;30.69;98173.88;2622015;54;19946;-67
2022/08/16 13:51:12;;;;;;;;;;;;;;;30.52;30.20;98165.47;2622083;54;19939;-69
2022/08/16 13:53:45;;;;;;;;;;;;;;;30.44;31.05;98173.75;2621743;54;20031;-67
2022/08/16 13:56:29;;;;;;;;;;;;;;;30.63;31.53;98168.53;2621446;54;20442;-67
2022/08/16 13:59:06;;;;;;;;;;;;;;;30.83;30.38;98164.94;2621267;54;20457;-67
2022/08/16 14:01:52;;;;;;;;;;;;;;;31.05;30.14;98160.94;2620277;54;19962;-67
2022/08/16 14:04:25;;;;;;;;;;;;;;;31.18;30.04;98160.91;2620661;47;19938;-67
2022/08/16 14:06:56;;;;;;;;;;;;;;;31.11;29.54;98164.25;2620663;54;19953;-67
2022/08/16 14:09:26;;;;;;;;;;;;;;;31.13;29.65;98161.16;2621684;54;19947;-66
2022/08/16 14:11:57;;;;;;;;;;;;;;;31.05;28.92;98160.94;2621298;54;19945;-67
2022/08/16 14:14:29;;;;;;;;;;;;;;;31.07;29.34;98160.59;2621070;54;19946;-67
2022/08/16 14:17:03;;;;;;;;;;;;;;;30.68;30.06;98151.16;2620840;54;19946;-67
2022/08/16 14:19:32;;;;;;;;;;;;;;;30.39;30.93;98161.13;2621317;54;20026;-67
2022/08/16 14:22:03;;;;;;;;;;;;;;;29.82;31.15;98151.75;2621254;54;19939;-68
2022/08/16 14:24:44;;;;;;;;;;;;;;;29.63;32.05;98147.91;2621184;54;19946;-66
2022/08/16 14:27:16;;;;;;;;;;;;;;;29.40;32.12;98148.25;2620691;54;19957;-67
2022/08/16 14:29:46;;;;;;;;;;;;;;;29.25;32.44;98143.41;2620637;54;19958;-67
2022/08/16 14:32:21;;;;;;;;;;;;;;;29.16;32.66;98142.66;2620997;54;19946;-72
2022/08/16 14:35:03;;;;;;;;;;;;;;;29.55;32.50;98157.72;2621088;54;19954;-68
2022/08/16 14:37:32;;;;;;;;;;;;;;;29.83;31.90;98147.09;2621018;54;19950;-67
2022/08/16 14:40:02;;;;;;;;;;;;;;;30.04;31.32;98147.84;2620590;47;19947;-68
2022/08/16 14:42:33;;;;;;;;;;;;;;;30.20;31.27;98148.03;2621478;54;19951;-68
2022/08/16 14:45:05;;;;;;;;;;;;;;;30.39;30.89;98150.22;2621134;54;20014;-68
2022/08/16 14:47:37;;;;;;;;;;;;;;;30.56;30.90;98141.81;2621973;54;19947;-67
2022/08/16 14:50:13;;;;;;;;;;;;;;;30.76;30.73;98140.16;2621918;54;20065;-68
2022/08/16 14:52:43;;;;;;;;;;;;;;;30.95;29.89;98136.84;2620919;54;20470;-67
2022/08/16 14:55:34;;;;;;;;;;;;;;;30.64;30.30;98142.06;2619698;54;19977;-67
2022/08/16 14:58:05;;;;;;;;;;;;;;;30.67;29.90;98144.91;2619557;54;19946;-67
2022/08/16 15:00:47;;;;;;;;;;;;;;;30.48;29.83;98141.94;2619686;54;19947;-67
2022/08/16 15:03:22;;;;;;;;;;;;;;;30.39;29.84;98141.25;2619334;47;19946;-67
2022/08/16 15:05:52;;;;;;;;;;;;;;;30.38;30.08;98137.72;2620068;54;19939;-67
2022/08/16 15:08:22;;;;;;;;;;;;;;;30.35;30.13;98132.94;2620557;54;20463;-67
2022/08/16 15:11:05;;;;;;;;;;;;;;;30.50;29.85;98126.03;2620008;54;19946;-67
2022/08/16 15:13:36;;;;;;;;;;;;;;;30.88;29.67;98127.66;2619646;54;19946;-67
2022/08/16 15:16:06;;;;;;;;;;;;;;;30.97;29.20;98120.91;2619662;54;19958;-67
2022/08/16 15:18:40;;;;;;;;;;;;;;;31.12;29.33;98124.88;2619090;47;19958;-68
2022/08/16 15:21:14;;;;;;;;;;;;;;;31.26;29.02;98129.97;2620736;54;20037;-67
2022/08/16 15:23:44;;;;;;;;;;;;;;;31.38;28.66;98121.75;2620172;54;19947;-67
2022/08/16 15:26:14;;;;;;;;;;;;;;;31.49;27.80;98122.88;2620350;39;20365;-70
2022/08/16 15:29:07;;;;;;;;;;;;;;;31.68;27.48;98122.25;2619380;47;19969;-67
2022/08/16 15:31:40;;;;;;;;;;;;;;;31.76;27.78;98115.00;2619662;47;20422;-67
2022/08/16 15:34:14;;;;;;;;;;;;;;;31.90;27.46;98111.91;2619718;54;20031;-66
2022/08/16 15:36:54;;;;;;;;;;;;;;;31.69;27.31;98120.28;2619427;54;20134;-66
2022/08/16 15:39:23;;;;;;;;;;;;;;;31.78;27.40;98110.00;2619724;47;20821;-68
2022/08/16 15:42:09;;;;;;;;;;;;;;;32.04;26.95;98113.06;2619558;47;20656;-68
2022/08/16 15:44:40;;;;;;;;;;;;;;;32.15;27.04;98113.34;2620197;54;19958;-67
2022/08/16 15:47:23;;;;;;;;;;;;;;;32.25;26.74;98112.00;2619333;47;19947;-67
2022/08/16 15:49:57;;;;;;;;;;;;;;;32.34;26.55;98118.13;2619916;54;19946;-66
2022/08/16 15:52:29;;;;;;;;;;;;;;;32.52;26.59;98118.56;2619803;54;19947;-67
2022/08/16 15:55:00;;;;;;;;;;;;;;;32.55;26.56;98121.41;2618758;54;19945;-67
2022/08/16 15:57:49;;;;;;;;;;;;;;;32.59;25.97;98126.19;2618854;54;19939;-67
2022/08/16 16:00:20;;;;;;;;;;;;;;;32.36;26.30;98120.50;2619306;54;19942;-67
2022/08/16 16:02:50;;;;;;;;;;;;;;;32.30;25.76;98115.28;2623357;54;19939;-70
2022/08/16 16:05:22;;;;;;;;;;;;;;;32.33;25.57;98116.50;2622025;54;19938;-67
2022/08/16 16:07:53;;;;;;;;;;;;;;;32.35;25.87;98119.72;2619435;47;19946;-67
2022/08/16 16:10:27;;;;;;;;;;;;;;;32.39;26.14;98123.34;2620345;54;20031;-66
2022/08/16 16:12:59;;;;;;;;;;;;;;;32.50;25.82;98123.63;2619733;54;19938;-66
2022/08/16 16:15:30;;;;;;;;;;;;;;;32.44;25.62;98119.56;2619356;54;19951;-67
2022/08/16 16:17:59;;;;;;;;;;;;;;;32.45;25.67;98115.66;2618122;54;19947;-66
2022/08/16 16:20:42;;;;;;;;;;;;;;;32.54;25.31;98116.28;2618391;54;19945;-66
2022/08/16 16:23:12;;;;;;;;;;;;;;;32.47;25.43;98110.66;2618866;39;20388;-66
2022/08/16 16:25:42;;;;;;;;;;;;;;;32.47;25.46;98118.84;2617673;47;19946;-68
2022/08/16 16:28:13;;;;;;;;;;;;;;;32.61;25.50;98113.72;2618169;54;19946;-65
2022/08/16 16:31:03;;;;;;;;;;;;;;;32.65;24.57;98106.38;2617686;47;19946;-66
2022/08/16 16:33:37;;;;;;;;;;;;;;;32.67;24.90;98111.50;2618382;54;20414;-66
2022/08/16 16:36:13;;;;;;;;;;;;;;;32.68;24.98;98111.16;2618111;47;19979;-67
2022/08/16 16:38:44;;;;;;;;;;;;;;;32.58;24.88;98106.22;2618962;54;19939;-69
2022/08/16 16:41:15;;;;;;;;;;;;;;;32.59;24.99;98112.50;2618490;39;20347;-69
2022/08/16 16:43:45;;;;;;;;;;;;;;;32.66;24.75;98120.84;2618637;54;19954;-70
2022/08/16 16:46:19;;;;;;;;;;;;;;;32.60;24.78;98111.34;2618812;54;19951;-68
2022/08/16 16:49:09;;;;;;;;;;;;;;;32.70;24.87;98108.03;2621436;54;19969;-69
2022/08/16 16:51:42;;;;;;;;;;;;;;;32.78;24.98;98110.63;2624144;54;19939;-68
2022/08/16 16:54:14;;;;;;;;;;;;;;;32.67;24.67;98117.00;2620440;54;19954;-69
2022/08/16 16:56:56;;;;;;;;;;;;;;;32.71;24.77;98106.91;2618670;54;19946;-68
2022/08/16 16:59:24;;;;;;;;;;;;;;;32.84;24.65;98102.13;2618426;54;19954;-68
2022/08/16 17:01:57;;;;;;;;;;;;;;;32.82;24.46;98107.16;2617817;47;19966;-67
2022/08/16 17:04:46;;;;;;;;;;;;;;;32.78;24.75;98104.31;2617954;54;19973;-68
2022/08/16 17:07:19;;;;;;;;;;;;;;;32.87;24.62;98106.88;2620388;39;20330;-69
2022/08/16 17:09:52;;;;;;;;;;;;;;;32.93;24.61;98102.75;2619371;54;19950;-69
2022/08/16 17:12:22;;;;;;;;;;;;;;;32.98;24.77;98105.97;2618650;54;19939;-68
2022/08/16 17:15:12;;;;;;;;;;;;;;;33.08;24.21;98095.66;2620865;39;20333;-68
2022/08/16 17:17:44;;;;;;;;;;;;;;;33.00;24.25;98098.22;2619003;54;19982;-68
2022/08/16 17:20:28;;;;;;;;;;;;;;;33.11;24.19;98092.16;2618890;54;19947;-68
2022/08/16 17:23:00;;;;;;;;;;;;;;;33.25;24.21;98098.75;2618721;54;19953;-68
2022/08/16 17:25:29;;;;;;;;;;;;;;;33.21;24.15;98097.09;2619050;54;19947;-67
2022/08/16 17:28:05;;;;;;;;;;;;;;;33.17;24.51;98094.28;2619150;39;20302;-68
2022/08/16 17:30:55;;;;;;;;;;;;;;;33.11;24.47;98101.19;2621344;54;20025;-69
2022/08/16 17:33:25;;;;;;;;;;;;;;;33.04;24.33;98101.81;2621933;54;19939;-68
2022/08/16 17:36:05;;;;;;;;;;;;;;;33.15;24.50;98103.97;2619427;54;20494;-65
2022/08/16 17:38:39;;;;;;;;;;;;;;;33.15;23.72;98096.59;2618951;39;20327;-68
2022/08/16 17:41:14;;;;;;;;;;;;;;;33.22;24.03;98095.94;2618668;54;19954;-68
2022/08/16 17:43:45;;;;;;;;;;;;;;;33.04;24.53;98110.03;2618014;47;20026;-66
2022/08/16 17:46:15;;;;;;;;;;;;;;;32.87;24.42;98113.16;2619069;54;19955;-67